Time;durP1;ratioP1;P1;durP2;ratioP2;P2;SDS_P1;SDS_P2;PMS_P1;PMS_P2;Temp;Humidity;BMP_temperature;BMP_pressure;BME280_temperature;BME280_humidity;BME280_pressure;Samples;Min_cycle;Max_cycle;Signal;HPM_P1;HPM_P2
2021/05/30 00:01:57;;;;;;;23.60;18.05;;;14.60;99.90;;;14.82;70.89;102753.81;5090685;28;20055;-72
2021/05/30 00:04:25;;;;;;;24.67;18.63;;;14.60;99.90;;;14.86;70.82;102768.03;5095300;28;20567;-71
2021/05/30 00:06:53;;;;;;;24.90;18.70;;;14.60;99.90;;;14.67;70.96;102739.47;5077446;28;20105;-71
2021/05/30 00:09:22;;;;;;;25.63;19.38;;;14.60;99.90;;;14.83;70.92;102768.00;5077315;28;20551;-71
2021/05/30 00:11:50;;;;;;;24.95;19.02;;;14.60;99.90;;;14.79;71.21;102761.75;5095268;28;20492;-71
2021/05/30 00:14:18;;;;;;;22.67;18.73;;;14.60;99.90;;;14.68;71.27;102758.09;5095233;28;20124;-71
2021/05/30 00:16:47;;;;;;;25.75;19.17;;;14.50;99.90;;;14.71;71.40;102766.09;5095464;28;20102;-71
2021/05/30 00:19:16;;;;;;;24.02;18.67;;;14.50;99.90;;;14.68;71.76;102760.78;5077128;28;20048;-71
2021/05/30 00:21:44;;;;;;;24.33;18.08;;;14.50;99.90;;;14.76;71.49;102764.41;5095188;28;20477;-72
2021/05/30 00:24:12;;;;;;;23.95;18.77;;;14.50;99.90;;;14.79;71.38;102772.41;5095059;28;20046;-71
2021/05/30 00:26:42;;;;;;;23.35;19.15;;;14.40;99.90;;;14.73;71.34;102771.47;5095116;28;20152;-72
2021/05/30 00:29:09;;;;;;;23.77;19.60;;;14.50;99.90;;;14.00;71.61;102658.00;5095164;28;20056;-71
2021/05/30 00:31:38;;;;;;;27.63;19.17;;;14.40;99.90;;;14.50;71.95;102754.38;5094826;28;20051;-71
2021/05/30 00:34:06;;;;;;;24.30;18.40;;;14.30;99.90;;;14.54;71.82;102764.19;5094997;28;20068;-71
2021/05/30 00:36:34;;;;;;;24.27;19.42;;;14.30;99.90;;;14.59;71.80;102763.38;5094836;28;20082;-71
2021/05/30 00:39:02;;;;;;;25.42;19.05;;;14.30;99.90;;;14.48;72.07;102759.69;5094775;28;20105;-71
2021/05/30 00:41:30;;;;;;;25.52;19.25;;;14.30;99.90;;;14.48;72.12;102763.25;5094770;28;20048;-71
2021/05/30 00:43:59;;;;;;;26.95;18.17;;;14.20;99.90;;;14.44;72.20;102760.53;5094581;28;20382;-71
2021/05/30 00:46:29;;;;;;;25.30;18.80;;;14.20;99.90;;;14.44;72.50;102757.84;5094971;28;20115;-71
2021/05/30 00:48:57;;;;;;;24.67;17.45;;;14.20;99.90;;;13.78;72.65;102656.88;5095014;28;20084;-71
2021/05/30 00:51:28;;;;;;;25.38;19.23;;;14.20;99.90;;;14.43;72.86;102764.06;5093249;28;20048;-71
2021/05/30 00:53:56;;;;;;;26.23;19.10;;;14.10;99.90;;;14.48;72.58;102765.91;5094477;28;20040;-71
2021/05/30 00:56:24;;;;;;;22.77;18.88;;;14.20;99.90;;;14.50;72.52;102751.72;5076477;28;20074;-71
2021/05/30 00:58:52;;;;;;;26.23;18.58;;;14.20;99.90;;;14.41;72.17;102755.19;5094435;28;20396;-71
2021/05/30 01:01:20;;;;;;;25.58;18.60;;;14.20;99.90;;;14.40;72.38;102762.25;5094429;28;20043;-71
2021/05/30 01:03:48;;;;;;;22.48;17.52;;;14.10;99.90;;;14.40;72.28;102762.25;5094368;28;20040;-71
2021/05/30 01:06:16;;;;;;;23.70;17.52;;;14.10;99.90;;;14.49;72.33;102753.50;5094269;28;20036;-71
2021/05/30 01:08:46;;;;;;;23.85;18.50;;;14.10;99.90;;;14.47;72.52;102752.59;5094413;28;20051;-71
2021/05/30 01:11:16;;;;;;;22.92;18.17;;;14.10;99.90;;;14.37;72.28;102748.03;5094464;28;20044;-71
2021/05/30 01:13:45;;;;;;;23.70;17.83;;;14.10;99.90;;;14.44;72.06;102758.75;5094190;28;20079;-71
2021/05/30 01:16:15;;;;;;;27.88;18.77;;;14.10;99.90;;;14.38;72.53;102755.16;5094585;28;20044;-71
2021/05/30 01:18:45;;;;;;;23.42;18.38;;;14.10;99.90;;;14.36;72.41;102759.59;5094021;28;20544;-71
2021/05/30 01:21:13;;;;;;;23.97;18.50;;;14.10;99.90;;;14.24;72.64;102756.75;5094341;28;20039;-71
2021/05/30 01:23:42;;;;;;;25.60;18.83;;;14.00;99.90;;;14.14;72.75;102765.50;5094139;28;20047;-71
2021/05/30 01:26:11;;;;;;;22.02;18.40;;;14.00;99.90;;;14.27;72.56;102751.44;5093832;28;20051;-71
2021/05/30 01:28:38;;;;;;;25.05;18.13;;;14.00;99.90;;;14.29;72.82;102757.72;5075897;28;20436;-71
2021/05/30 01:31:07;;;;;;;25.63;19.27;;;14.00;99.90;;;14.25;72.54;102750.53;5094054;28;20040;-71
2021/05/30 01:33:35;;;;;;;25.70;18.23;;;14.00;99.90;;;14.20;72.86;102766.47;5094059;28;20056;-71
2021/05/30 01:36:03;;;;;;;24.00;18.98;;;13.90;99.90;;;14.16;72.81;102748.69;5094006;28;20036;-71
2021/05/30 01:38:32;;;;;;;24.95;18.20;;;13.90;99.90;;;14.25;72.69;102766.50;5093650;28;20149;-71
2021/05/30 01:41:01;;;;;;;24.20;18.45;;;13.90;99.90;;;12.85;72.28;102512.22;5075377;28;20487;-71
2021/05/30 01:43:29;;;;;;;23.95;18.88;;;14.00;99.90;;;14.15;72.74;102754.00;5075603;28;20439;-71
2021/05/30 01:45:59;;;;;;;25.77;18.85;;;13.90;99.90;;;13.67;72.59;102652.31;5093840;28;20117;-71
2021/05/30 01:48:27;;;;;;;27.73;19.52;;;14.00;99.90;;;14.21;72.62;102752.28;5093785;28;20129;-70
2021/05/30 01:50:55;;;;;;;28.00;18.15;;;13.90;99.90;;;14.18;72.34;102741.59;5075335;28;20036;-71
2021/05/30 01:53:29;;;;;;;24.48;18.33;;;13.90;99.90;;;14.32;72.30;102755.09;5093512;28;20055;-71
2021/05/30 01:58:43;;;;;;;24.58;18.20;;;14.00;99.90;;;14.33;72.39;102755.09;5092466;28;20497;-71
2021/05/30 02:01:13;;;;;;;24.17;18.35;;;14.00;99.90;;;14.35;72.05;102760.44;5093274;28;20105;-71
2021/05/30 02:03:44;;;;;;;25.70;18.85;;;14.00;99.90;;;14.42;71.82;102754.28;5093448;28;20118;-71
2021/05/30 02:06:16;;;;;;;28.48;18.38;;;14.10;99.90;;;14.26;71.56;102728.38;5093436;28;20094;-71
2021/05/30 02:08:46;;;;;;;24.50;18.23;;;14.10;99.90;;;14.40;71.73;102750.75;5093077;28;20058;-71
2021/05/30 02:11:14;;;;;;;23.43;18.67;;;14.10;99.90;;;14.33;71.53;102727.56;5092968;28;20048;-71
2021/05/30 02:13:44;;;;;;;26.92;19.65;;;14.00;99.90;;;14.29;71.41;102725.75;5075024;28;20117;-71
2021/05/30 02:16:12;;;;;;;27.17;18.88;;;14.10;99.90;;;14.34;71.85;102745.34;5092978;28;20101;-71
2021/05/30 02:18:40;;;;;;;25.70;19.45;;;14.00;99.90;;;14.07;71.91;102707.75;5092851;28;20052;-71
2021/05/30 02:21:08;;;;;;;29.58;18.52;;;14.00;99.90;;;14.37;71.84;102740.94;5093155;28;20127;-71
2021/05/30 02:23:36;;;;;;;26.08;18.55;;;14.00;99.90;;;14.35;71.99;102747.13;5092798;28;20048;-71
2021/05/30 02:26:05;;;;;;;25.35;17.85;;;14.00;99.90;;;14.27;71.78;102735.47;5073546;28;20442;-71
2021/05/30 02:28:33;;;;;;;25.08;18.95;;;14.00;99.90;;;14.34;71.76;102746.22;5093056;28;20094;-71
2021/05/30 02:31:02;;;;;;;26.63;20.10;;;14.00;99.90;;;14.32;71.77;102742.66;5092881;28;20118;-71
2021/05/30 02:33:30;;;;;;;27.42;19.25;;;14.00;99.90;;;14.36;71.80;102749.78;5092947;28;20079;-71
2021/05/30 02:35:58;;;;;;;26.05;18.30;;;14.00;99.90;;;14.42;71.80;102752.53;5074588;28;20051;-71
2021/05/30 02:38:26;;;;;;;28.08;19.10;;;14.00;99.90;;;14.40;72.13;102754.28;5092554;28;20454;-72
2021/05/30 02:40:54;;;;;;;23.65;19.00;;;14.10;99.90;;;14.39;71.84;102755.16;5074590;28;20089;-71
2021/05/30 02:43:22;;;;;;;22.73;19.30;;;14.10;99.90;;;14.44;71.75;102748.09;5092742;28;20093;-71
2021/05/30 02:45:50;;;;;;;24.60;18.85;;;14.10;99.90;;;13.71;71.56;102612.47;5092736;28;20553;-71
2021/05/30 02:48:19;;;;;;;27.83;18.95;;;14.10;99.90;;;14.49;71.49;102745.50;5092416;28;20378;-71
2021/05/30 02:50:58;;;;;;;26.45;20.00;;;14.20;99.90;;;14.55;71.65;102752.66;5092456;28;20036;-71
2021/05/30 02:53:27;;;;;;;26.90;19.30;;;14.20;99.90;;;14.51;71.47;102748.16;5092959;28;20044;-71
2021/05/30 02:55:55;;;;;;;25.52;18.65;;;14.20;99.90;;;14.59;71.65;102752.72;5092457;28;20075;-71
2021/05/30 02:58:23;;;;;;;29.05;19.13;;;14.30;99.90;;;14.40;71.60;102751.63;5092644;28;20051;-71
2021/05/30 03:00:51;;;;;;;25.70;18.10;;;14.30;99.90;;;14.53;71.51;102730.44;5074332;28;20578;-71
2021/05/30 03:03:20;;;;;;;24.30;18.40;;;14.30;99.90;;;14.68;71.33;102751.88;5092258;28;20044;-71
2021/05/30 03:05:48;;;;;;;20.80;17.27;;;14.30;99.90;;;14.63;71.19;102757.19;5092283;28;20057;-71
2021/05/30 03:08:16;;;;;;;25.35;17.20;;;14.30;99.90;;;14.63;70.86;102751.84;5092326;28;20101;-71
2021/05/30 03:10:44;;;;;;;25.60;17.98;;;14.30;99.90;;;14.68;70.83;102763.44;5092200;28;20056;-71
2021/05/30 03:13:12;;;;;;;21.08;16.65;;;14.40;99.90;;;14.69;71.14;102753.69;5092296;28;20071;-71
2021/05/30 03:15:40;;;;;;;21.80;16.52;;;14.40;99.90;;;14.71;70.91;102750.13;5092374;28;20040;-71
2021/05/30 03:18:08;;;;;;;22.40;17.48;;;14.40;99.90;;;14.63;70.43;102746.53;5074100;28;20036;-71
2021/05/30 03:20:37;;;;;;;20.85;16.23;;;14.30;99.90;;;14.70;70.32;102756.34;5092299;28;20052;-71
2021/05/30 03:23:05;;;;;;;22.77;16.73;;;14.40;99.90;;;14.58;70.45;102729.59;5092243;28;20404;-71
2021/05/30 03:25:33;;;;;;;27.55;17.05;;;14.30;99.90;;;14.75;70.52;102756.41;5073817;28;20504;-70
2021/05/30 03:28:01;;;;;;;21.25;15.32;;;14.40;99.90;;;14.64;70.14;102747.41;5074132;28;20064;-71
2021/05/30 03:30:29;;;;;;;22.23;16.75;;;14.40;99.90;;;14.63;69.97;102742.97;5091974;28;20477;-71
2021/05/30 03:32:57;;;;;;;22.02;16.52;;;14.40;99.90;;;14.82;70.19;102760.91;5092205;28;20062;-71
2021/05/30 03:35:25;;;;;;;22.98;16.52;;;14.50;99.90;;;14.35;69.99;102673.47;5092226;28;20431;-71
2021/05/30 03:37:55;;;;;;;25.02;15.80;;;14.50;99.90;;;14.84;69.83;102757.38;5077130;28;20489;-71
2021/05/30 03:40:29;;;;;;;25.23;15.35;;;14.50;99.90;;;14.86;69.56;102752.03;5077944;28;20063;-71
2021/05/30 03:42:58;;;;;;;24.17;15.73;;;14.60;99.90;;;14.86;69.77;102763.59;5096274;28;20162;-71
2021/05/30 03:45:26;;;;;;;21.75;15.65;;;14.60;99.90;;;14.92;69.78;102758.34;5077864;28;20105;-71
2021/05/30 03:47:54;;;;;;;21.02;16.33;;;14.50;99.90;;;14.78;70.03;102754.66;5077743;28;20417;-71
2021/05/30 03:50:22;;;;;;;23.90;17.10;;;14.50;99.90;;;14.92;69.96;102761.00;5096235;28;20055;-72
2021/05/30 03:52:50;;;;;;;23.90;17.80;;;14.60;99.90;;;14.90;70.07;102769.84;5095833;28;20048;-71
2021/05/30 03:55:20;;;;;;;25.75;17.65;;;14.60;99.90;;;14.02;72.85;102760.03;5095643;28;20598;-71
2021/05/30 03:57:48;;;;;;;23.02;17.75;;;13.90;99.90;;;13.53;74.67;102758.50;5095905;28;20051;-71
2021/05/30 04:00:19;;;;;;;27.35;18.75;;;13.40;99.90;;;13.01;77.09;102743.53;5096063;28;20105;-71
2021/05/30 04:02:48;;;;;;;27.90;19.45;;;12.90;99.90;;;12.89;77.98;102740.66;5077558;28;20419;-71
2021/05/30 04:05:16;;;;;;;33.08;20.42;;;12.70;99.90;;;13.03;78.19;102763.06;5095538;28;20036;-71
2021/05/30 04:07:44;;;;;;;27.52;20.92;;;12.70;99.90;;;12.96;78.53;102760.25;5077319;28;20527;-72
2021/05/30 04:10:14;;;;;;;31.20;21.73;;;12.60;99.90;;;12.81;78.57;102763.56;5077365;28;20083;-71
2021/05/30 04:12:44;;;;;;;32.00;22.88;;;12.60;99.90;;;12.75;80.21;102762.56;5095468;28;20044;-71
2021/05/30 04:15:14;;;;;;;30.80;22.73;;;12.40;99.90;;;12.72;79.99;102762.53;5095208;28;20044;-71
2021/05/30 04:17:43;;;;;;;31.58;23.17;;;12.40;99.90;;;12.38;81.32;102763.69;5095494;28;20052;-71
2021/05/30 04:20:17;;;;;;;34.55;23.25;;;12.20;99.90;;;12.25;82.06;102764.31;5095053;28;20430;-71
2021/05/30 04:22:45;;;;;;;33.80;22.90;;;12.00;99.90;;;12.05;82.80;102757.72;5077029;28;20044;-71
2021/05/30 04:25:14;;;;;;;33.20;23.80;;;11.80;99.90;;;11.63;83.23;102678.19;5094990;28;20067;-71
2021/05/30 04:27:43;;;;;;;30.80;22.55;;;11.80;99.90;;;12.07;83.71;102761.28;5095114;28;20056;-71
2021/05/30 04:30:14;;;;;;;32.35;22.67;;;11.80;99.90;;;11.54;84.50;102708.03;5077045;28;20409;-72
2021/05/30 04:32:43;;;;;;;29.95;21.73;;;11.60;99.90;;;11.97;84.55;102743.41;5095192;28;20055;-71
2021/05/30 04:35:12;;;;;;;32.70;20.98;;;11.70;99.90;;;12.44;83.02;102758.47;5095301;28;20086;-71
2021/05/30 04:37:41;;;;;;;31.27;21.98;;;12.00;99.90;;;12.30;83.39;102773.25;5076737;28;20188;-71
2021/05/30 04:40:11;;;;;;;32.83;22.00;;;12.00;99.90;;;11.91;84.14;102761.84;5094661;28;20104;-71
2021/05/30 04:42:39;;;;;;;31.15;20.75;;;11.70;99.90;;;11.74;84.13;102645.75;5076772;28;20044;-71
2021/05/30 04:45:09;;;;;;;31.55;20.15;;;12.00;99.90;;;12.26;82.70;102721.88;5094930;28;20040;-71
2021/05/30 04:47:37;;;;;;;27.92;19.40;;;12.20;99.90;;;12.50;82.03;102763.91;5094983;28;20040;-71
2021/05/30 04:50:07;;;;;;;27.92;19.35;;;12.20;99.90;;;11.85;82.53;102748.44;5094220;28;20043;-71
2021/05/30 04:52:39;;;;;;;33.85;20.27;;;11.80;99.90;;;12.00;83.73;102767.34;5076457;28;20795;-71
2021/05/30 04:55:11;;;;;;;32.45;20.70;;;11.70;99.90;;;11.93;82.47;102786.63;5076379;28;20059;-71
2021/05/30 04:57:41;;;;;;;28.83;19.83;;;11.80;99.90;;;11.45;84.20;102763.50;5076410;28;20071;-71
2021/05/30 05:00:14;;;;;;;28.95;19.38;;;11.30;99.90;;;11.56;83.88;102761.97;5094651;28;20048;-71
2021/05/30 05:02:43;;;;;;;29.35;19.95;;;11.30;99.90;;;11.64;84.73;102725.91;5094221;28;20044;-71
2021/05/30 05:05:12;;;;;;;28.55;19.60;;;11.40;99.90;;;12.12;83.07;102765.81;5076226;28;20082;-71
2021/05/30 05:07:43;;;;;;;27.48;18.75;;;11.80;99.90;;;12.38;81.99;102768.97;5076141;28;20052;-71
2021/05/30 05:10:12;;;;;;;29.25;19.35;;;12.00;99.90;;;11.94;82.46;102756.63;5076236;28;20058;-71
2021/05/30 05:12:40;;;;;;;27.95;18.58;;;11.80;99.90;;;12.30;81.45;102767.94;5076157;28;20386;-72
2021/05/30 05:15:11;;;;;;;30.00;18.77;;;12.00;99.90;;;12.53;79.91;102777.22;5094307;28;20132;-71
2021/05/30 05:17:38;;;;;;;;;;;12.20;99.90;;;12.33;79.44;102774.19;5076646;28;20044;-71
2021/05/30 05:20:08;;;;;;;28.70;18.52;;;12.20;99.90;;;12.23;79.59;102764.25;5094061;28;19927;-71
2021/05/30 05:22:37;;;;;;;28.25;17.90;;;12.10;99.90;;;12.23;78.93;102768.69;5075819;28;20043;-71
2021/05/30 05:25:06;;;;;;;27.27;18.65;;;12.10;99.90;;;12.18;78.43;102765.03;5094220;28;20443;-71
2021/05/30 05:27:34;;;;;;;28.17;17.42;;;12.00;99.90;;;12.45;78.49;102765.56;5075368;28;20147;-71
2021/05/30 05:30:02;;;;;;;25.63;19.27;;;12.10;99.90;;;12.27;78.35;102770.56;5075810;28;20147;-71
2021/05/30 05:32:31;;;;;;;27.05;18.27;;;12.10;99.90;;;12.45;78.53;102770.88;5075809;28;20059;-71
2021/05/30 05:34:59;;;;;;;29.35;18.17;;;12.10;99.90;;;12.55;77.52;102763.13;5093788;28;20092;-71
2021/05/30 05:37:27;;;;;;;23.33;19.05;;;12.30;99.90;;;12.75;76.57;102766.13;5093737;28;20055;-71
2021/05/30 05:39:55;;;;;;;28.88;18.05;;;12.50;99.90;;;12.87;76.64;102769.00;5075536;28;20056;-72
2021/05/30 05:42:23;;;;;;;25.30;17.48;;;12.60;99.90;;;12.70;75.65;102765.13;5093281;28;20501;-71
2021/05/30 05:44:51;;;;;;;23.88;16.50;;;12.60;99.90;;;12.78;75.19;102755.53;5093498;28;20044;-71
2021/05/30 05:47:19;;;;;;;22.80;16.23;;;12.60;99.90;;;13.00;74.96;102756.78;5093581;28;20097;-71
2021/05/30 05:49:48;;;;;;;27.60;17.27;;;12.70;99.90;;;13.07;74.53;102743.66;5093571;28;20493;-71
2021/05/30 05:52:16;;;;;;;24.17;18.20;;;12.90;99.90;;;13.32;73.88;102767.06;5093759;28;20047;-71
2021/05/30 05:54:49;;;;;;;21.60;16.65;;;13.10;99.90;;;13.42;73.53;102763.69;5075425;28;20404;-72
2021/05/30 05:57:18;;;;;;;21.50;16.90;;;13.20;99.90;;;12.91;72.72;102650.41;5093135;28;20543;-71
2021/05/30 05:59:46;;;;;;;26.30;17.33;;;13.30;99.90;;;13.48;72.02;102766.44;5092687;28;20566;-72
2021/05/30 06:02:14;;;;;;;22.48;16.13;;;13.30;99.90;;;13.60;72.53;102755.06;5074887;28;20139;-72
2021/05/30 06:04:43;;;;;;;24.08;17.45;;;13.30;99.90;;;13.50;72.05;102785.97;5092978;28;20048;-71
2021/05/30 06:07:12;;;;;;;20.38;15.65;;;13.30;99.90;;;13.50;72.27;102755.81;5093210;28;20047;-71
2021/05/30 06:09:40;;;;;;;24.75;17.10;;;13.30;99.90;;;13.70;72.07;102764.06;5093359;28;20051;-71
2021/05/30 06:12:10;;;;;;;21.10;15.63;;;13.40;99.90;;;13.90;71.46;102773.22;5074821;28;20056;-72
2021/05/30 06:14:38;;;;;;;21.75;15.65;;;13.60;99.90;;;13.30;72.99;102770.56;5093301;28;20047;-71
2021/05/30 06:17:07;;;;;;;23.67;16.85;;;13.30;99.90;;;13.10;73.27;102769.41;5074830;28;20055;-72
2021/05/30 06:19:35;;;;;;;22.02;16.15;;;13.00;99.90;;;12.80;75.20;102777.72;5074656;28;20035;-71
2021/05/30 06:22:05;;;;;;;26.88;17.50;;;12.60;99.90;;;12.21;76.01;102770.44;5074837;28;20505;-71
2021/05/30 06:24:35;;;;;;;22.63;16.58;;;12.10;99.90;;;12.02;77.99;102760.31;5092987;28;20075;-71
2021/05/30 06:27:04;;;;;;;29.15;18.33;;;11.90;99.90;;;12.31;76.75;102773.28;5092418;28;20070;-72
2021/05/30 06:29:32;;;;;;;28.42;18.67;;;12.10;99.90;;;11.63;76.62;102649.91;5092794;28;20097;-72
2021/05/30 06:32:00;;;;;;;26.65;17.48;;;12.10;99.90;;;12.17;77.61;102715.53;5092906;28;20161;-72
2021/05/30 06:34:29;;;;;;;29.77;18.98;;;12.10;99.90;;;12.54;76.68;102765.75;5074522;28;20048;-72
2021/05/30 06:36:57;;;;;;;27.98;18.25;;;12.30;99.90;;;12.07;78.01;102771.91;5092515;28;20382;-72
2021/05/30 06:39:27;;;;;;;26.33;18.58;;;11.90;99.90;;;11.95;79.06;102772.56;5092883;28;20058;-71
2021/05/30 06:41:56;;;;;;;25.58;18.42;;;11.80;99.90;;;12.40;79.49;102769.91;5092548;28;20044;-71
2021/05/30 06:44:24;;;;;;;26.38;18.85;;;12.00;99.90;;;12.82;77.65;102778.63;5074572;28;20554;-71
2021/05/30 06:46:52;;;;;;;26.40;19.40;;;12.40;99.90;;;12.83;76.69;102782.19;5091342;28;20048;-71
2021/05/30 06:49:20;;;;;;;27.77;17.90;;;12.60;99.90;;;13.08;75.79;102782.66;5092711;28;20044;-72
2021/05/30 06:51:48;;;;;;;24.05;17.92;;;12.80;99.90;;;13.39;75.63;102776.91;5074354;28;20043;-71
2021/05/30 06:54:17;;;;;;;25.00;18.05;;;13.00;99.90;;;13.74;74.24;102777.44;5092161;28;20078;-72
2021/05/30 06:56:45;;;;;;;28.75;17.77;;;13.40;99.90;;;13.40;73.48;102716.69;5092542;28;20408;-72
2021/05/30 06:59:14;;;;;;;25.75;17.55;;;13.40;99.90;;;14.05;72.50;102781.38;5092270;28;20074;-71
2021/05/30 07:01:42;;;;;;;28.50;16.80;;;13.70;99.90;;;13.68;71.84;102771.13;5092268;28;20040;-71
2021/05/30 07:04:10;;;;;;;25.88;16.58;;;13.60;99.90;;;14.18;73.04;102777.97;5092255;28;20047;-71
2021/05/30 07:06:38;;;;;;;22.42;16.60;;;13.80;99.90;;;14.52;71.88;102773.94;5092470;28;20055;-71
2021/05/30 07:09:06;;;;;;;25.48;16.85;;;14.20;99.90;;;14.81;70.81;102783.97;5092254;28;20051;-72
2021/05/30 07:11:35;;;;;;;25.15;16.75;;;14.50;99.90;;;15.06;69.68;102771.75;5094221;28;20044;-71
2021/05/30 07:14:04;;;;;;;24.30;15.48;;;14.80;99.90;;;15.14;68.29;102778.91;5099025;28;20101;-72
2021/05/30 07:16:32;;;;;;;18.38;14.48;;;14.90;99.90;;;15.41;68.71;102774.69;5099191;28;20123;-71
2021/05/30 07:19:01;;;;;;;28.25;16.27;;;15.10;99.90;;;15.72;68.43;102771.31;5099176;28;20123;-71
2021/05/30 07:21:29;;;;;;;22.58;15.32;;;15.40;99.90;;;15.41;66.54;102764.88;5098738;28;20550;-71
2021/05/30 07:23:57;;;;;;;18.75;15.02;;;15.40;99.90;;;15.50;67.01;102791.66;5098906;28;20386;-72
2021/05/30 07:26:25;;;;;;;17.33;15.00;;;15.40;99.90;;;15.59;67.03;102781.03;5098867;28;20059;-71
2021/05/30 07:28:54;;;;;;;23.10;16.10;;;15.30;99.90;;;15.58;67.42;102789.03;5098977;28;20047;-72
2021/05/30 07:31:22;;;;;;;22.38;15.43;;;15.50;99.90;;;15.86;67.80;102785.63;5080670;28;20044;-71
2021/05/30 07:33:51;;;;;;;19.13;14.82;;;15.50;99.90;;;16.14;66.40;102783.06;5080642;28;20058;-71
2021/05/30 07:36:19;;;;;;;21.15;15.48;;;15.80;99.90;;;16.36;65.80;102770.66;5080578;28;20059;-71
2021/05/30 07:38:47;;;;;;;20.90;15.25;;;16.20;99.90;;;16.43;63.54;102774.25;5080717;28;20434;-71
2021/05/30 07:41:15;;;;;;;22.13;15.98;;;16.30;99.90;;;16.45;64.24;102783.16;5080669;28;20055;-72
2021/05/30 07:43:43;;;;;;;21.95;16.38;;;16.30;99.90;;;16.65;64.02;102798.34;5098405;28;20048;-72
2021/05/30 07:46:11;;;;;;;23.88;16.65;;;16.40;99.90;;;16.10;65.08;102780.38;5098627;28;20386;-71
2021/05/30 07:48:39;;;;;;;26.55;16.77;;;16.00;99.90;;;15.31;66.79;102790.59;5099183;28;20131;-71
2021/05/30 07:51:08;;;;;;;26.70;17.60;;;15.40;99.90;;;15.07;68.67;102774.44;5080497;28;20055;-71
2021/05/30 07:53:36;;;;;;;21.77;16.98;;;15.00;99.90;;;14.66;68.79;102782.94;5098397;28;20040;-70
2021/05/30 07:56:05;;;;;;;28.98;20.23;;;14.60;99.90;;;13.91;72.37;102775.88;5099010;28;20047;-70
2021/05/30 07:58:34;;;;;;;28.67;19.65;;;13.90;99.90;;;13.71;71.76;102662.09;5080484;28;20067;-72
2021/05/30 08:01:03;;;;;;;24.13;17.70;;;14.00;99.90;;;15.10;71.73;102773.53;5080497;28;20127;-73
2021/05/30 08:03:31;;;;;;;24.45;18.20;;;14.60;99.90;;;15.57;70.08;102772.13;5098713;28;20054;-70
2021/05/30 08:06:00;;;;;;;23.33;18.40;;;15.10;99.90;;;15.79;68.98;102779.38;5080494;28;20051;-71
2021/05/30 08:08:29;;;;;;;25.05;17.75;;;15.50;99.90;;;16.16;68.15;102778.63;5098666;28;20054;-71
2021/05/30 08:10:58;;;;;;;19.08;15.35;;;15.80;99.90;;;16.55;66.99;102783.19;5098535;28;20431;-68
2021/05/30 08:13:26;;;;;;;27.15;16.40;;;16.20;99.90;;;16.74;66.04;102785.00;5098637;28;20040;-66
2021/05/30 08:15:54;;;;;;;31.10;21.67;;;16.50;99.90;;;17.01;64.71;102787.69;5098372;28;20579;-70
2021/05/30 08:18:22;;;;;;;23.80;17.80;;;16.80;99.90;;;15.79;65.72;102778.47;5098715;28;20044;-68
2021/05/30 08:20:50;;;;;;;24.55;18.05;;;15.90;99.90;;;16.20;66.43;102771.53;5098333;28;20036;-68
2021/05/30 08:23:18;;;;;;;25.00;18.65;;;16.00;99.90;;;16.39;66.50;102757.31;5096327;28;20090;-68
2021/05/30 08:25:47;;;;;;;20.98;16.20;;;16.20;99.90;;;16.98;66.52;102766.31;5095050;28;20366;-68
2021/05/30 08:28:15;;;;;;;20.85;16.83;;;16.60;99.90;;;16.58;63.85;102688.78;5095088;28;20102;-68
2021/05/30 08:30:43;;;;;;;23.85;17.65;;;16.80;99.90;;;16.34;64.09;102758.22;5095078;28;20457;-68
2021/05/30 08:33:11;;;;;;;22.98;17.05;;;16.50;99.90;;;16.89;65.80;102768.09;5095056;28;20044;-73
2021/05/30 08:35:39;;;;;;;20.20;16.35;;;16.60;99.90;;;17.30;65.16;102763.63;5094884;28;20122;-73
2021/05/30 08:38:20;;;;;;;21.67;17.25;;;17.00;99.90;;;17.28;63.62;102776.09;5095195;28;20036;-73
2021/05/30 08:40:58;;;;;;;23.73;17.98;;;17.10;99.90;;;16.21;64.60;102774.19;5094995;28;20056;-72
2021/05/30 08:43:27;;;;;;;20.05;17.42;;;16.40;99.90;;;16.52;66.29;102756.47;5095022;28;20048;-72
2021/05/30 08:45:55;;;;;;;23.50;17.27;;;16.30;99.90;;;16.79;65.38;102748.50;5094796;28;20075;-71
2021/05/30 08:48:24;;;;;;;23.70;17.13;;;16.60;99.90;;;17.15;64.08;102767.19;5094466;28;20135;-80
2021/05/30 08:51:04;;;;;;;20.30;16.38;;;16.90;99.90;;;17.48;64.71;102752.88;5076672;28;20067;-73
2021/05/30 08:53:35;;;;;;;21.63;16.83;;;17.30;99.90;;;17.81;63.99;102775.97;5094649;28;20055;-75
2021/05/30 08:56:07;;;;;;;25.20;17.45;;;17.50;99.90;;;17.45;63.39;102770.69;5094900;28;20040;-74
2021/05/30 08:58:37;;;;;;;21.55;17.27;;;17.30;99.90;;;17.73;63.54;102770.66;5094565;28;20056;-73
2021/05/30 09:01:11;;;;;;;24.30;18.73;;;17.50;99.90;;;18.04;63.11;102769.63;5076327;28;20133;-72
2021/05/30 09:04:03;;;;;;;25.02;19.25;;;17.80;99.90;;;17.68;62.63;102681.44;5076219;28;20135;-73
2021/05/30 09:06:33;;;;;;;25.30;19.65;;;17.90;99.90;;;17.97;62.10;102745.56;5094300;28;20067;-75
2021/05/30 09:09:05;;;;;;;24.17;18.85;;;18.00;99.90;;;18.17;61.86;102780.28;5093847;28;20044;-72
2021/05/30 09:11:40;;;;;;;21.30;18.67;;;18.00;99.90;;;18.62;62.02;102775.56;5076120;28;20320;-73
2021/05/30 09:14:14;;;;;;;24.55;19.05;;;18.30;99.90;;;18.16;61.37;102776.72;5094406;28;20089;-73
2021/05/30 09:16:53;;;;;;;24.70;18.63;;;18.10;99.90;;;18.25;64.79;102770.44;5076019;28;20052;-68
2021/05/30 09:19:43;;;;;;;23.52;18.58;;;17.90;99.90;;;17.80;62.62;102760.81;5094210;28;20040;-68
2021/05/30 09:22:30;;;;;;;26.23;18.80;;;17.60;99.90;;;17.64;63.84;102759.97;5094330;28;20052;-72
2021/05/30 09:25:20;;;;;;;23.80;17.92;;;17.40;99.90;;;17.81;65.44;102765.25;5094132;28;20071;-72
2021/05/30 09:28:00;;;;;;;24.33;18.70;;;17.50;99.90;;;17.81;64.31;102765.25;5061790;28;20104;-71
2021/05/30 09:30:37;;;;;;;25.80;19.27;;;17.50;99.90;;;18.16;64.12;102765.09;5052500;28;20055;-68
2021/05/30 09:33:18;;;;;;;26.15;19.35;;;17.70;99.90;;;18.59;63.50;102763.97;5053864;28;20076;-69
2021/05/30 09:35:52;;;;;;;25.75;19.60;;;18.20;99.90;;;18.81;62.17;102752.19;5053388;28;20505;-70
2021/05/30 09:38:28;;;;;;;23.15;17.90;;;18.60;99.90;;;19.00;61.85;102759.19;5053762;28;20136;-69
2021/05/30 09:40:58;;;;;;;26.48;17.52;;;18.80;99.90;;;19.08;60.37;102757.34;5053217;28;20059;-66
2021/05/30 09:43:28;;;;;;;23.70;17.17;;;19.00;99.90;;;19.18;60.39;102766.19;5053617;28;20053;-66
2021/05/30 09:46:13;;;;;;;21.95;17.17;;;19.00;99.90;;;18.40;60.75;102764.97;5052205;28;20041;-71
2021/05/30 09:48:56;;;;;;;21.50;16.80;;;18.40;99.90;;;18.43;62.46;102760.50;5053554;28;20088;-69
2021/05/30 09:51:29;;;;;;;23.98;17.80;;;18.10;99.90;;;18.71;61.37;102737.97;5053215;28;20513;-67
2021/05/30 09:54:01;;;;;;;20.92;17.27;;;18.50;99.90;;;18.68;62.29;102764.81;5052907;28;20055;-66
2021/05/30 09:56:42;;;;;;;20.27;16.50;;;18.40;99.90;;;19.21;62.00;102753.63;5053126;28;20079;-69
2021/05/30 09:59:12;;;;;;;;;;;18.80;99.90;;;19.46;60.84;102756.97;5052133;28;20076;-67
2021/05/30 10:01:58;;;;;;;25.08;17.23;;;19.20;99.90;;;18.80;61.21;102751.31;5053584;28;20321;-68
2021/05/30 10:04:29;;;;;;;22.08;16.42;;;18.90;99.90;;;18.46;62.17;102756.94;5051961;28;20430;-69
2021/05/30 10:06:59;;;;;;;20.77;16.17;;;18.40;99.90;;;18.43;61.11;102749.78;5052962;28;20098;-67
2021/05/30 10:09:28;;;;;;;21.97;17.33;;;18.20;99.90;;;18.23;63.60;102749.00;5051827;28;20063;-67
2021/05/30 10:11:57;;;;;;;18.88;15.35;;;18.00;99.90;;;17.97;61.92;102758.97;5052930;28;20099;-67
2021/05/30 10:14:29;;;;;;;19.65;16.45;;;17.90;99.90;;;18.18;63.21;102750.81;5053028;28;20076;-68